HomeShort term forecast

Short term forecast

Graphical weather forecast for the next 48 hours for Montreal:
Short term forecast
This weather forecast is automatically refreshed every 3 hours.

Hourly Experimental Forecast for the next 48 hours

Overall summary: Rain starting tomorrow morning, continuing until tomorrow afternoon.

 Date & Hour   Temp   Feel   Baro   Hum   Speed & Bearing   Wind Gust   Precip.%   Precip.   Visibility   Cloud cover   Conditions 
 21/07/2018 - 16:00  30.6°C  30.6°C  1016.9 hPa  38%  15.0 km/h   27.6 km/h  0%  --  16.1km  31%  Partly Cloudy 
 21/07/2018 - 17:00  30.7°C  30.7°C  1016.5 hPa  38%  14.0 km/h   22.9 km/h  0%  --  16.1km  13%  Clear 
 21/07/2018 - 18:00  30.3°C  30.3°C  1016.5 hPa  40%  12.5 km/h   18.6 km/h  0%  --  16.1km  5%  Clear 
 21/07/2018 - 19:00  29.7°C  29.7°C  1016.3 hPa  42%  11.1 km/h   17.0 km/h  0%  --  16.1km  5%  Clear 
 21/07/2018 - 20:00  28.6°C  28.6°C  1016.3 hPa  43%  9.1 km/h   16.1 km/h  0%  --  16.1km  32%  Partly Cloudy 
 21/07/2018 - 21:00  26.8°C  27.1°C  1016.6 hPa  48%  8.4 km/h   13.7 km/h  0%  --  16.1km  50%  Partly Cloudy 
 21/07/2018 - 22:00  25.0°C  25.0°C  1016.9 hPa  53%  9.2 km/h   18.2 km/h  0%  --  16.1km  56%  Partly Cloudy 
 21/07/2018 - 23:00  23.7°C  23.7°C  1017.3 hPa  54%  10.1 km/h   20.9 km/h  0%  --  16.1km  58%  Partly Cloudy 
 22/07/2018 - 00:00  22.6°C  22.6°C  1017.4 hPa  55%  10.6 km/h   24.7 km/h  0%  --  16.1km  69%  Mostly Cloudy 
 22/07/2018 - 01:00  21.8°C  21.8°C  1017.5 hPa  57%  10.7 km/h   26.2 km/h  0%  --  16.1km  67%  Mostly Cloudy 
 22/07/2018 - 02:00  20.8°C  20.8°C  1017.6 hPa  59%  10.7 km/h   26.1 km/h  0%  --  16.1km  65%  Mostly Cloudy 
 22/07/2018 - 03:00  19.7°C  19.7°C  1017.6 hPa  62%  10.4 km/h   25.1 km/h  1%  0.04 mm/h  16.1km  81%  Mostly Cloudy 
 22/07/2018 - 04:00  18.2°C  18.2°C  1017.6 hPa  67%  8.9 km/h   21.6 km/h  1%  0.03 mm/h  16.1km  83%  Mostly Cloudy 
 22/07/2018 - 05:00  16.8°C  16.8°C  1017.7 hPa  74%  8.6 km/h   19.3 km/h  0%  --  16.1km  80%  Mostly Cloudy 
 22/07/2018 - 06:00  16.4°C  16.4°C  1017.8 hPa  76%  9.3 km/h   20.7 km/h  3%  0.07 mm/h  16.1km  81%  Mostly Cloudy 
 22/07/2018 - 07:00  17.1°C  17.1°C  1017.7 hPa  75%  11.0 km/h   23.9 km/h  8%  0.40 mm/h  16.1km  84%  Mostly Cloudy 
 22/07/2018 - 08:00  17.8°C  17.8°C  1017.6 hPa  74%  12.6 km/h   27.3 km/h  28%  0.82 mm/h  16.1km  87%  Possible Light Rain 
 22/07/2018 - 09:00  17.9°C  17.9°C  1017.2 hPa  75%  15.0 km/h   30.7 km/h  36%  1.14 mm/h  16.1km  92%  Light Rain 
 22/07/2018 - 10:00  17.7°C  17.7°C  1016.9 hPa  77%  17.6 km/h   34.3 km/h  46%  1.48 mm/h  16.1km  97%  Rain 
 22/07/2018 - 11:00  17.7°C  17.7°C  1016.4 hPa  80%  20.1 km/h   37.2 km/h  58%  2.02 mm/h  13.2km  100%  Rain 
 22/07/2018 - 12:00  18.5°C  18.5°C  1016.1 hPa  81%  21.9 km/h   38.9 km/h  60%  2.12 mm/h  12.2km  100%  Rain 
 22/07/2018 - 13:00  20.1°C  20.2°C  1015.8 hPa  80%  23.1 km/h   39.6 km/h  53%  1.27 mm/h  12.5km  98%  Light Rain 
 22/07/2018 - 14:00  21.7°C  22.0°C  1015.6 hPa  77%  23.8 km/h   39.3 km/h  46%  1.20 mm/h  13.9km  97%  Light Rain 
 22/07/2018 - 15:00  23.3°C  23.6°C  1015.3 hPa  75%  22.4 km/h   37.3 km/h  37%  0.67 mm/h  16.1km  96%  Overcast 
 22/07/2018 - 16:00  24.4°C  24.9°C  1015.0 hPa  74%  20.4 km/h   34.5 km/h  16%  0.14 mm/h  16.1km  93%  Mostly Cloudy 
 22/07/2018 - 17:00  25.2°C  25.7°C  1014.8 hPa  74%  18.7 km/h   32.4 km/h  9%  0.01 mm/h  16.1km  88%  Mostly Cloudy 
 22/07/2018 - 18:00  25.5°C  26.1°C  1014.9 hPa  74%  17.1 km/h   31.9 km/h  9%  0.03 mm/h  16.1km  84%  Mostly Cloudy 
 22/07/2018 - 19:00  25.6°C  26.2°C  1015.1 hPa  75%  15.7 km/h   32.1 km/h  7%  0.08 mm/h  16.1km  72%  Mostly Cloudy 
 22/07/2018 - 20:00  25.2°C  25.8°C  1015.4 hPa  78%  14.2 km/h   31.9 km/h  6%  0.12 mm/h  16.1km  85%  Mostly Cloudy 
 22/07/2018 - 21:00  24.3°C  24.9°C  1015.8 hPa  82%  12.8 km/h   31.0 km/h  6%  0.08 mm/h  16.1km  62%  Mostly Cloudy 
 22/07/2018 - 22:00  23.5°C  24.2°C  1016.2 hPa  85%  11.2 km/h   29.9 km/h  5%  0.06 mm/h  16.1km  62%  Mostly Cloudy 
 22/07/2018 - 23:00  22.9°C  23.6°C  1016.5 hPa  87%  10.5 km/h   29.2 km/h  7%  0.07 mm/h  16.1km  45%  Partly Cloudy 
 23/07/2018 - 00:00  22.6°C  23.2°C  1016.6 hPa  89%  10.2 km/h   29.4 km/h  7%  0.07 mm/h  16.1km  32%  Partly Cloudy 
 23/07/2018 - 01:00  22.4°C  23.0°C  1016.7 hPa  90%  10.1 km/h   30.2 km/h  6%  0.05 mm/h  16.1km  44%  Partly Cloudy 
 23/07/2018 - 02:00  22.1°C  22.7°C  1016.7 hPa  91%  10.2 km/h   30.4 km/h  5%  0.05 mm/h  16.1km  68%  Mostly Cloudy 
 23/07/2018 - 03:00  21.9°C  22.5°C  1016.8 hPa  92%  9.8 km/h   29.5 km/h  6%  0.14 mm/h  15.7km  71%  Mostly Cloudy 
 23/07/2018 - 04:00  21.7°C  22.3°C  1016.8 hPa  92%  9.5 km/h   28.0 km/h  18%  0.46 mm/h  11.2km  74%  Mostly Cloudy 
 23/07/2018 - 05:00  21.8°C  22.4°C  1017.0 hPa  92%  9.5 km/h   26.9 km/h  25%  0.68 mm/h  9.3km  88%  Mostly Cloudy 
 23/07/2018 - 06:00  22.1°C  22.7°C  1017.4 hPa  91%  9.9 km/h   26.7 km/h  11%  0.40 mm/h  12.5km  87%  Mostly Cloudy 
 23/07/2018 - 07:00  23.0°C  23.7°C  1017.9 hPa  88%  10.8 km/h   26.9 km/h  3%  0.07 mm/h  16.1km  83%  Mostly Cloudy 
 23/07/2018 - 08:00  24.1°C  24.8°C  1018.3 hPa  84%  12.2 km/h   26.9 km/h  0%  --  16.1km  73%  Mostly Cloudy 
 23/07/2018 - 09:00  25.4°C  26.1°C  1018.4 hPa  80%  14.3 km/h   26.4 km/h  2%  0.01 mm/h  16.1km  71%  Mostly Cloudy 
 23/07/2018 - 10:00  26.7°C  28.6°C  1018.4 hPa  75%  16.5 km/h   26.0 km/h  3%  0.03 mm/h  16.1km  63%  Mostly Cloudy 
 23/07/2018 - 11:00  28.0°C  30.7°C  1018.4 hPa  70%  18.1 km/h   26.0 km/h  3%  0.06 mm/h  16.1km  58%  Partly Cloudy 
 23/07/2018 - 12:00  28.8°C  31.8°C  1018.3 hPa  67%  19.1 km/h   26.3 km/h  6%  0.09 mm/h  16.1km  60%  Mostly Cloudy 
 23/07/2018 - 13:00  29.8°C  33.0°C  1018.0 hPa  63%  19.8 km/h   26.9 km/h  8%  0.13 mm/h  16.1km  65%  Mostly Cloudy 
 23/07/2018 - 14:00  30.6°C  34.0°C  1017.8 hPa  60%  21.2 km/h   27.9 km/h  8%  0.15 mm/h  16.1km  69%  Mostly Cloudy 
 23/07/2018 - 15:00  31.1°C  34.6°C  1017.6 hPa  58%  22.1 km/h   29.9 km/h  8%  0.10 mm/h  16.1km  70%  Mostly Cloudy 
Test

 

Past weather and reports

Past weatherFind in this section the past weather conditions, weather archive, graphics, reports and statistics.

Current conditions

Current weather condition for MontrealAll you need to know about the current weather conditions for Montreal. Weather data is updated every 10 minutes.

Weather forecast

Current Montreal weatherSince 2004, celinium.com website has provided accurate weather forecast for Montreal's island.